Oak Hammock Air Park

CAV9 · 曼尼托巴, 加拿大

罗盘
风向 的 风向 330°
风: 20 kt, 5 beaufort

添加一条跑道以查看侧风和逆风信息。

添置 跑道
0 2.000 4.000 6.000 8.000 10.000
OVC 6.700 ft
METAR CYWG 021600Z 33020KT 5SM -SN BLSN OVC067 M13/M16 A2972 RMK BLSN3AC5 PRESRR SLP085

METAR Oak Hammock Air Park - CAV9

Oak Hammock Air Park是,加拿大中的小机场。 视场标高为755 ft。 该领域的国际民航组织标志是CAV9.

这份报告是针对2022年12月2日 10:00, 当地时间在Winnipeg / James Armstrong Richardson International Airport进行的。

机场观察

风向为330°,速度为20 kt。

可见度为5 mi。

有乌云密布在6.700 ft的高度。 破损或更高的上限为6.700 ft。

当前天气为光 雪, 吹 雪。 温度为-13 °C,阵风为-27 °C。 露点为-16 °C,相对湿度为78%。 海平面上的气压为29,72 inHg (QNH)。

白天

今天,太阳从08:07升起,在16:28降落。 这适用于Oak Hammock Air Park,世界夏令时可能有所不同。 当地时间与世界标准时间之间的时差为-6 小时。 当前,没有夏令时有效。

公司介绍

我们没有关于这个机场的公司信息。

体会

到Vliegles.nl去找飞行课程,跳伞和其他飞行体验。 浏览页面,了解Oak Hammock Air Park附近所有可用的活动。 你也可以使用搜索功能来寻找你所在地附近的特定飞行课程、跳伞或其他飞行体验。

乌云

6.700 ft OVC 乌云密布

温度 & 天气

天气 光 雪
吹 雪
温度 -13 °C
露点 -16 °C
相对湿度 78%
风寒 -27 °C
Kp-index 3 (0-9)

评论

PRESRR气压迅速上升
SLP085海平面压力为29,78 inHg (29,78 inHg)
BLSN3AC5

白天

日出
08:06
中午
12:18
日落
16:29 (5:32)

小工具

你想在你的网站上有一个关于Oak Hammock Air Park的当前航空天气(METAR)的小部件吗?

显示HTML代码

我们和第三方通过cookies跟踪您在我们网站上的互联网行为。如果你继续,我们认为你同意我们的饼干政策